Vancouver, Washington
Current Conditions -  °F | °C
As of 10:43 PM on Friday 24 Oct 2014 (Local Time) from KVUO Reporting Station
Haze Haze  
Wind Chill: 10°   Ceiling: Unl
Heat Index: 10°   Visibility: 4mi
Dew Point:   Wind: 0mph
Humidity: 96%   Direction: NA
Pressure: 29.71"   Gusts: NA
Location:  45.63°N, 122.67°W
Report Text: KVUO 250543Z AUTO 00000KT 4SM BR CLR 10/09 A2971 RMK AO2 T01000094
Loading
Personal Weather Stations






























Interactive Weather Map
Tropical Storm Tracking
New forecast layout! Learn more

10-Day Weather Forecast

Advertisements
Track Severe Weather on mobile